WZZ4115 LYBE-LEBL
Flight info
| Callsign | WZZ4115 |
|---|---|
| Flight time | 2h 18m |
| Altitude | 28000 |
| Route | VAL Y88 VEBAR DCT KEB DCT GILUK DCT VRANA DCT PEVON DCT VELUG DCT OLBEK DCT EPIKU DCT GINOX DCT KIFMI DCT ELVOP DCT MUREN DCT CHELY M601 VERSO |
| Aircraft | A321/M-SDE3FGHIRWY/LB1 |
Departure
| Time | 2026-04-27 05:50 |
|---|---|
| Airport | Belgrade Nikola Tesla Airport (LYBE) |
Arrival
| Time | 2026-04-27 08:08 |
|---|---|
| Airport | Josep Tarradellas Barcelona-El Prat Airport (LEBL) |
| Time | Latitude | Longitude | Altitude | Speed | Heading |
|---|---|---|---|---|---|
| 2026-04-27 05:20 | 44.81854 | 20.29206 | 323 ft | 0 kts | 301° |
| 2026-04-27 05:39 | 44.81852 | 20.29210 | 322 ft | 3 kts | 301° |
| 2026-04-27 05:40 | 44.81838 | 20.29241 | 321 ft | 4 kts | 306° |
| 2026-04-27 05:40 | 44.81820 | 20.29262 | 320 ft | 4 kts | 351° |
| 2026-04-27 05:40 | 44.81795 | 20.29259 | 322 ft | 3 kts | 30° |
| 2026-04-27 05:40 | 44.81788 | 20.29253 | 320 ft | 0 kts | 32° |
| 2026-04-27 05:44 | 44.81792 | 20.29257 | 320 ft | 3 kts | 32° |
| 2026-04-27 05:45 | 44.81837 | 20.29296 | 321 ft | 10 kts | 32° |
| 2026-04-27 05:45 | 44.81900 | 20.29352 | 322 ft | 14 kts | 32° |
| 2026-04-27 05:45 | 44.82001 | 20.29439 | 322 ft | 18 kts | 32° |
| 2026-04-27 05:45 | 44.82095 | 20.29522 | 323 ft | 14 kts | 31° |
| 2026-04-27 05:46 | 44.82168 | 20.29472 | 324 ft | 13 kts | 302° |
| 2026-04-27 05:46 | 44.82218 | 20.29359 | 324 ft | 14 kts | 302° |
| 2026-04-27 05:46 | 44.82271 | 20.29239 | 324 ft | 15 kts | 302° |
| 2026-04-27 05:46 | 44.82327 | 20.29114 | 324 ft | 16 kts | 302° |
| 2026-04-27 05:47 | 44.82386 | 20.28977 | 323 ft | 17 kts | 301° |
| 2026-04-27 05:47 | 44.82463 | 20.28862 | 322 ft | 16 kts | 339° |
| 2026-04-27 05:47 | 44.82563 | 20.28913 | 321 ft | 16 kts | 44° |
| 2026-04-27 05:47 | 44.82597 | 20.28976 | 322 ft | 0 kts | 62° |
| 2026-04-27 05:48 | 44.82598 | 20.28978 | 322 ft | 1 kts | 62° |
| 2026-04-27 05:48 | 44.82602 | 20.28991 | 322 ft | 3 kts | 65° |
| 2026-04-27 05:48 | 44.82617 | 20.29068 | 323 ft | 12 kts | 78° |
| 2026-04-27 05:49 | 44.82613 | 20.29183 | 323 ft | 12 kts | 116° |
| 2026-04-27 05:49 | 44.82550 | 20.29327 | 322 ft | 38 kts | 122° |
| 2026-04-27 05:49 | 44.82256 | 20.29989 | 320 ft | 118 kts | 122° |
| 2026-04-27 05:49 | 44.81701 | 20.31244 | 322 ft | 181 kts | 122° |
| 2026-04-27 05:50 | 44.80968 | 20.32854 | 852 ft | 196 kts | 123° |
| 2026-04-27 05:50 | 44.80155 | 20.34379 | 1864 ft | 195 kts | 139° |
| 2026-04-27 05:50 | 44.78883 | 20.35079 | 2588 ft | 203 kts | 173° |
| 2026-04-27 05:50 | 44.77415 | 20.35233 | 2845 ft | 222 kts | 176° |
| 2026-04-27 05:51 | 44.75804 | 20.35351 | 3174 ft | 238 kts | 176° |
| 2026-04-27 05:51 | 44.74145 | 20.35488 | 3893 ft | 240 kts | 176° |
| 2026-04-27 05:51 | 44.72458 | 20.35654 | 4560 ft | 245 kts | 175° |
| 2026-04-27 05:51 | 44.70766 | 20.35845 | 5208 ft | 250 kts | 175° |
| 2026-04-27 05:52 | 44.69012 | 20.36065 | 5804 ft | 257 kts | 175° |
| 2026-04-27 05:52 | 44.67206 | 20.36306 | 5979 ft | 262 kts | 174° |
| 2026-04-27 05:52 | 44.65388 | 20.36557 | 6000 ft | 262 kts | 174° |
| 2026-04-27 05:52 | 44.63570 | 20.36814 | 6011 ft | 262 kts | 174° |
| 2026-04-27 05:53 | 44.61756 | 20.37073 | 6003 ft | 262 kts | 174° |
| 2026-04-27 05:53 | 44.59942 | 20.37333 | 5996 ft | 262 kts | 174° |
| 2026-04-27 05:53 | 44.58124 | 20.37593 | 6008 ft | 262 kts | 174° |
| 2026-04-27 05:53 | 44.56310 | 20.37853 | 6005 ft | 262 kts | 174° |
| 2026-04-27 05:54 | 44.54496 | 20.38111 | 6006 ft | 262 kts | 174° |
| 2026-04-27 05:54 | 44.52678 | 20.38285 | 5996 ft | 262 kts | 186° |
| 2026-04-27 05:54 | 44.50939 | 20.37628 | 6007 ft | 259 kts | 210° |
| 2026-04-27 05:54 | 44.49524 | 20.36040 | 6069 ft | 270 kts | 235° |
| 2026-04-27 05:55 | 44.48589 | 20.33734 | 6611 ft | 276 kts | 248° |
| 2026-04-27 05:55 | 44.47758 | 20.31326 | 7240 ft | 280 kts | 248° |
| 2026-04-27 05:55 | 44.46901 | 20.28855 | 7891 ft | 284 kts | 248° |
| 2026-04-27 05:55 | 44.46031 | 20.26360 | 8560 ft | 287 kts | 248° |
| 2026-04-27 05:56 | 44.45147 | 20.23830 | 9219 ft | 291 kts | 248° |
| 2026-04-27 05:56 | 44.44250 | 20.21265 | 9875 ft | 295 kts | 248° |
| 2026-04-27 05:56 | 44.43342 | 20.18671 | 10472 ft | 298 kts | 248° |
| 2026-04-27 05:56 | 44.42430 | 20.16058 | 11117 ft | 300 kts | 248° |
| 2026-04-27 05:57 | 44.41513 | 20.13435 | 11788 ft | 300 kts | 247° |
| 2026-04-27 05:57 | 44.40595 | 20.10811 | 12469 ft | 300 kts | 247° |
| 2026-04-27 05:57 | 44.39675 | 20.08192 | 13153 ft | 301 kts | 247° |
| 2026-04-27 05:57 | 44.38752 | 20.05565 | 13829 ft | 301 kts | 246° |
| 2026-04-27 05:58 | 44.37841 | 20.02968 | 14448 ft | 302 kts | 246° |
| 2026-04-27 05:58 | 44.36915 | 20.00330 | 15010 ft | 304 kts | 246° |
| 2026-04-27 05:58 | 44.35982 | 19.97670 | 15577 ft | 306 kts | 246° |
| 2026-04-27 05:58 | 44.35041 | 19.94998 | 16119 ft | 308 kts | 246° |
| 2026-04-27 05:59 | 44.34093 | 19.92303 | 16661 ft | 310 kts | 246° |
| 2026-04-27 05:59 | 44.33137 | 19.89592 | 17195 ft | 312 kts | 246° |
| 2026-04-27 05:59 | 44.32214 | 19.86837 | 17717 ft | 314 kts | 251° |
| 2026-04-27 05:59 | 44.31421 | 19.83919 | 17871 ft | 329 kts | 251° |
| 2026-04-27 06:00 | 44.29742 | 19.77668 | 18135 ft | 358 kts | 251° |
| 2026-04-27 06:00 | 44.28851 | 19.74358 | 18273 ft | 372 kts | 251° |
| 2026-04-27 06:00 | 44.27920 | 19.70918 | 18413 ft | 385 kts | 251° |
| 2026-04-27 06:01 | 44.26959 | 19.67379 | 18664 ft | 394 kts | 251° |
| 2026-04-27 06:01 | 44.25979 | 19.63786 | 19062 ft | 398 kts | 251° |
| 2026-04-27 06:01 | 44.24990 | 19.60168 | 19497 ft | 400 kts | 251° |
| 2026-04-27 06:01 | 44.23994 | 19.56529 | 19945 ft | 403 kts | 251° |
| 2026-04-27 06:02 | 44.22991 | 19.52870 | 20383 ft | 405 kts | 250° |
| 2026-04-27 06:02 | 44.21981 | 19.49190 | 20812 ft | 407 kts | 251° |
| 2026-04-27 06:02 | 44.20965 | 19.45491 | 21242 ft | 410 kts | 250° |
| 2026-04-27 06:02 | 44.19941 | 19.41770 | 21651 ft | 412 kts | 250° |
| 2026-04-27 06:03 | 44.18927 | 19.38078 | 22064 ft | 414 kts | 250° |
| 2026-04-27 06:03 | 44.17900 | 19.34317 | 22474 ft | 417 kts | 251° |
| 2026-04-27 06:03 | 44.16891 | 19.30515 | 22873 ft | 419 kts | 251° |
| 2026-04-27 06:03 | 44.15897 | 19.26688 | 23258 ft | 421 kts | 251° |
| 2026-04-27 06:04 | 44.14903 | 19.22841 | 23639 ft | 423 kts | 251° |
| 2026-04-27 06:04 | 44.13903 | 19.18977 | 23979 ft | 426 kts | 251° |
| 2026-04-27 06:04 | 44.12886 | 19.15095 | 24300 ft | 428 kts | 251° |
| 2026-04-27 06:04 | 44.11838 | 19.11208 | 24626 ft | 430 kts | 250° |
| 2026-04-27 06:05 | 44.10766 | 19.07318 | 24948 ft | 432 kts | 250° |
| 2026-04-27 06:05 | 44.09679 | 19.03415 | 25265 ft | 434 kts | 250° |
| 2026-04-27 06:05 | 44.08584 | 18.99501 | 25588 ft | 435 kts | 250° |
| 2026-04-27 06:05 | 44.07487 | 18.95568 | 25901 ft | 437 kts | 250° |
| 2026-04-27 06:06 | 44.06391 | 18.91618 | 26202 ft | 439 kts | 250° |
| 2026-04-27 06:06 | 44.05294 | 18.87652 | 26489 ft | 440 kts | 250° |
| 2026-04-27 06:06 | 44.04192 | 18.83667 | 26792 ft | 442 kts | 250° |
| 2026-04-27 06:06 | 44.03084 | 18.79666 | 27087 ft | 444 kts | 250° |
| 2026-04-27 06:07 | 44.01972 | 18.75659 | 27382 ft | 446 kts | 250° |
| 2026-04-27 06:07 | 44.00851 | 18.71629 | 27679 ft | 448 kts | 250° |
| 2026-04-27 06:07 | 43.99741 | 18.67644 | 27983 ft | 450 kts | 250° |
| 2026-04-27 06:07 | 43.98611 | 18.63592 | 28220 ft | 449 kts | 250° |
| 2026-04-27 06:08 | 43.96388 | 18.55657 | 28265 ft | 436 kts | 250° |
| 2026-04-27 06:08 | 43.94182 | 18.47839 | 28257 ft | 434 kts | 250° |
| 2026-04-27 06:09 | 43.92382 | 18.39860 | 28265 ft | 432 kts | 257° |
| 2026-04-27 06:09 | 43.90837 | 18.31800 | 28276 ft | 432 kts | 257° |
| 2026-04-27 06:10 | 43.89285 | 18.23752 | 28271 ft | 432 kts | 256° |
| 2026-04-27 06:10 | 43.87720 | 18.15755 | 28269 ft | 432 kts | 256° |
| 2026-04-27 06:11 | 43.86137 | 18.07716 | 28261 ft | 432 kts | 256° |
| 2026-04-27 06:11 | 43.84548 | 17.99672 | 28254 ft | 433 kts | 256° |
| 2026-04-27 06:12 | 43.82952 | 17.91636 | 28244 ft | 433 kts | 256° |
| 2026-04-27 06:12 | 43.81349 | 17.83595 | 28229 ft | 433 kts | 256° |
| 2026-04-27 06:13 | 43.79747 | 17.75565 | 28228 ft | 433 kts | 256° |
| 2026-04-27 06:13 | 43.78147 | 17.67592 | 28226 ft | 433 kts | 256° |
| 2026-04-27 06:14 | 43.76531 | 17.59568 | 28219 ft | 433 kts | 256° |
| 2026-04-27 06:14 | 43.74557 | 17.51703 | 28216 ft | 435 kts | 245° |
| 2026-04-27 06:15 | 43.71682 | 17.44323 | 28207 ft | 436 kts | 244° |
| 2026-04-27 06:15 | 43.68801 | 17.36952 | 28209 ft | 436 kts | 244° |
| 2026-04-27 06:16 | 43.65916 | 17.29575 | 28197 ft | 436 kts | 244° |
| 2026-04-27 06:16 | 43.63026 | 17.22205 | 28196 ft | 436 kts | 244° |
| 2026-04-27 06:17 | 43.60128 | 17.14842 | 28188 ft | 436 kts | 244° |
| 2026-04-27 06:17 | 43.57251 | 17.07534 | 28183 ft | 436 kts | 244° |
| 2026-04-27 06:18 | 43.54348 | 17.00185 | 28179 ft | 436 kts | 243° |
| 2026-04-27 06:18 | 43.51438 | 16.92837 | 28171 ft | 436 kts | 243° |
| 2026-04-27 06:19 | 43.48525 | 16.85494 | 28170 ft | 436 kts | 243° |
| 2026-04-27 06:19 | 43.45603 | 16.78172 | 28163 ft | 436 kts | 243° |
| 2026-04-27 06:20 | 43.42684 | 16.70849 | 28158 ft | 437 kts | 243° |
| 2026-04-27 06:20 | 43.39760 | 16.63528 | 28156 ft | 437 kts | 243° |
| 2026-04-27 06:21 | 43.36829 | 16.56212 | 28157 ft | 437 kts | 243° |
| 2026-04-27 06:21 | 43.33887 | 16.48903 | 28158 ft | 437 kts | 243° |
| 2026-04-27 06:22 | 43.30955 | 16.41638 | 28154 ft | 437 kts | 243° |
| 2026-04-27 06:22 | 43.28003 | 16.34338 | 28157 ft | 437 kts | 243° |
| 2026-04-27 06:23 | 43.25050 | 16.27043 | 28156 ft | 437 kts | 243° |
| 2026-04-27 06:23 | 43.22091 | 16.19755 | 28152 ft | 437 kts | 243° |
| 2026-04-27 06:24 | 43.19618 | 16.13694 | 28147 ft | 438 kts | 243° |
| 2026-04-27 06:24 | 43.16154 | 16.05230 | 28145 ft | 438 kts | 243° |
| 2026-04-27 06:25 | 43.13657 | 15.99128 | 28148 ft | 438 kts | 243° |
| 2026-04-27 06:25 | 43.10699 | 15.91908 | 28153 ft | 438 kts | 243° |
| 2026-04-27 06:26 | 43.07715 | 15.84647 | 28149 ft | 438 kts | 243° |
| 2026-04-27 06:26 | 43.04721 | 15.77390 | 28152 ft | 438 kts | 243° |
| 2026-04-27 06:27 | 43.01721 | 15.70139 | 28153 ft | 438 kts | 243° |
| 2026-04-27 06:27 | 42.98714 | 15.62899 | 28153 ft | 438 kts | 243° |
| 2026-04-27 06:28 | 42.95707 | 15.55668 | 28156 ft | 438 kts | 243° |
| 2026-04-27 06:28 | 42.92697 | 15.48437 | 28156 ft | 438 kts | 243° |
| 2026-04-27 06:29 | 42.90022 | 15.41072 | 28155 ft | 434 kts | 252° |
| 2026-04-27 06:29 | 42.87986 | 15.33310 | 28157 ft | 435 kts | 252° |
| 2026-04-27 06:30 | 42.85935 | 15.25555 | 28151 ft | 435 kts | 252° |
| 2026-04-27 06:30 | 42.83874 | 15.17813 | 28157 ft | 435 kts | 252° |
| 2026-04-27 06:31 | 42.81804 | 15.10079 | 28155 ft | 435 kts | 252° |
| 2026-04-27 06:31 | 42.79732 | 15.02343 | 28155 ft | 435 kts | 252° |
| 2026-04-27 06:32 | 42.77660 | 14.94613 | 28152 ft | 434 kts | 252° |
| 2026-04-27 06:32 | 42.75575 | 14.86891 | 28154 ft | 434 kts | 252° |
| 2026-04-27 06:33 | 42.73482 | 14.79176 | 28153 ft | 434 kts | 252° |
| 2026-04-27 06:33 | 42.71407 | 14.71522 | 28157 ft | 434 kts | 252° |
| 2026-04-27 06:34 | 42.69317 | 14.63817 | 28154 ft | 434 kts | 252° |
| 2026-04-27 06:34 | 42.67216 | 14.56123 | 28152 ft | 434 kts | 251° |
| 2026-04-27 06:35 | 42.65107 | 14.48436 | 28156 ft | 434 kts | 251° |
| 2026-04-27 06:35 | 42.62995 | 14.40753 | 28161 ft | 434 kts | 251° |
| 2026-04-27 06:36 | 42.60881 | 14.33079 | 28165 ft | 434 kts | 251° |
| 2026-04-27 06:36 | 42.58758 | 14.25405 | 28168 ft | 434 kts | 251° |
| 2026-04-27 06:37 | 42.56641 | 14.17791 | 28169 ft | 434 kts | 251° |
| 2026-04-27 06:37 | 42.54509 | 14.10126 | 28170 ft | 434 kts | 251° |
| 2026-04-27 06:38 | 42.52374 | 14.02464 | 28170 ft | 434 kts | 251° |
| 2026-04-27 06:38 | 42.50238 | 13.94809 | 28169 ft | 434 kts | 251° |
| 2026-04-27 06:39 | 42.48075 | 13.87108 | 28168 ft | 434 kts | 251° |
| 2026-04-27 06:39 | 42.45920 | 13.79469 | 28165 ft | 434 kts | 251° |
| 2026-04-27 06:40 | 42.43764 | 13.71832 | 28171 ft | 434 kts | 251° |
| 2026-04-27 06:40 | 42.41618 | 13.64249 | 28180 ft | 434 kts | 251° |
| 2026-04-27 06:41 | 42.39446 | 13.56619 | 28181 ft | 434 kts | 251° |
| 2026-04-27 06:41 | 42.37276 | 13.49001 | 28187 ft | 434 kts | 251° |
| 2026-04-27 06:42 | 42.35104 | 13.41379 | 28195 ft | 434 kts | 251° |
| 2026-04-27 06:42 | 42.32920 | 13.33773 | 28190 ft | 434 kts | 250° |
| 2026-04-27 06:43 | 42.30728 | 13.26167 | 28194 ft | 434 kts | 250° |
| 2026-04-27 06:43 | 42.28540 | 13.18559 | 28192 ft | 434 kts | 250° |
| 2026-04-27 06:44 | 42.26347 | 13.10965 | 28195 ft | 435 kts | 250° |
| 2026-04-27 06:44 | 42.24138 | 13.03359 | 28193 ft | 435 kts | 250° |
| 2026-04-27 06:45 | 42.21940 | 12.95817 | 28191 ft | 435 kts | 250° |
| 2026-04-27 06:45 | 42.19716 | 12.88222 | 28194 ft | 435 kts | 250° |
| 2026-04-27 06:46 | 42.17491 | 12.80636 | 28190 ft | 435 kts | 250° |
| 2026-04-27 06:46 | 42.15260 | 12.73048 | 28197 ft | 435 kts | 250° |
| 2026-04-27 06:47 | 42.13027 | 12.65459 | 28198 ft | 435 kts | 250° |
| 2026-04-27 06:47 | 42.10794 | 12.57882 | 28183 ft | 435 kts | 250° |
| 2026-04-27 06:48 | 42.08553 | 12.50301 | 28183 ft | 436 kts | 250° |
| 2026-04-27 06:48 | 42.06304 | 12.42728 | 28194 ft | 436 kts | 250° |
| 2026-04-27 06:49 | 42.04047 | 12.35148 | 28262 ft | 436 kts | 250° |
| 2026-04-27 06:49 | 42.01801 | 12.27627 | 28283 ft | 436 kts | 250° |
| 2026-04-27 06:50 | 41.99529 | 12.20061 | 28295 ft | 436 kts | 249° |
| 2026-04-27 06:50 | 41.97255 | 12.12509 | 28301 ft | 436 kts | 249° |
| 2026-04-27 06:51 | 41.94968 | 12.04938 | 28302 ft | 437 kts | 249° |
| 2026-04-27 06:51 | 41.92684 | 11.97376 | 28287 ft | 437 kts | 249° |
| 2026-04-27 06:52 | 41.90393 | 11.89820 | 28263 ft | 437 kts | 249° |
| 2026-04-27 06:52 | 41.88096 | 11.82260 | 28237 ft | 437 kts | 249° |
| 2026-04-27 06:53 | 41.85795 | 11.74695 | 28210 ft | 437 kts | 249° |
| 2026-04-27 06:53 | 41.83487 | 11.67153 | 28186 ft | 437 kts | 249° |
| 2026-04-27 06:54 | 41.81173 | 11.59608 | 28186 ft | 438 kts | 249° |
| 2026-04-27 06:54 | 41.78869 | 11.52117 | 28185 ft | 438 kts | 249° |
| 2026-04-27 06:55 | 41.76541 | 11.44581 | 28187 ft | 438 kts | 249° |
| 2026-04-27 06:55 | 41.74216 | 11.37043 | 28185 ft | 438 kts | 249° |
| 2026-04-27 06:56 | 41.71877 | 11.29509 | 28186 ft | 438 kts | 248° |
| 2026-04-27 06:56 | 41.69529 | 11.21984 | 28185 ft | 438 kts | 248° |
| 2026-04-27 06:57 | 41.67183 | 11.14455 | 28184 ft | 438 kts | 248° |
| 2026-04-27 06:57 | 41.64833 | 11.06928 | 28181 ft | 439 kts | 248° |
| 2026-04-27 06:58 | 41.61294 | 10.95644 | 28180 ft | 439 kts | 248° |
| 2026-04-27 06:59 | 41.58921 | 10.88125 | 28180 ft | 439 kts | 248° |
| 2026-04-27 06:59 | 41.56544 | 10.80609 | 28181 ft | 439 kts | 248° |
| 2026-04-27 07:00 | 41.54165 | 10.73094 | 28179 ft | 439 kts | 248° |
| 2026-04-27 07:00 | 41.51775 | 10.65582 | 28181 ft | 440 kts | 248° |
| 2026-04-27 07:01 | 41.49379 | 10.58075 | 28182 ft | 440 kts | 248° |
| 2026-04-27 07:01 | 41.46982 | 10.50570 | 28181 ft | 440 kts | 248° |
| 2026-04-27 07:02 | 41.44587 | 10.43059 | 28180 ft | 440 kts | 248° |
| 2026-04-27 07:02 | 41.42182 | 10.35563 | 28175 ft | 440 kts | 247° |
| 2026-04-27 07:03 | 41.39763 | 10.28074 | 28177 ft | 440 kts | 247° |
| 2026-04-27 07:03 | 41.37341 | 10.20585 | 28177 ft | 440 kts | 247° |
| 2026-04-27 07:04 | 41.34917 | 10.13101 | 28182 ft | 440 kts | 247° |
| 2026-04-27 07:04 | 41.32485 | 10.05619 | 28176 ft | 440 kts | 247° |
| 2026-04-27 07:05 | 41.30050 | 9.98147 | 28173 ft | 441 kts | 247° |
| 2026-04-27 07:05 | 41.27611 | 9.90673 | 28174 ft | 441 kts | 247° |
| 2026-04-27 07:06 | 41.25377 | 9.83148 | 28170 ft | 440 kts | 254° |
| 2026-04-27 07:06 | 41.23656 | 9.75340 | 28169 ft | 440 kts | 254° |
| 2026-04-27 07:07 | 41.21917 | 9.67531 | 28167 ft | 440 kts | 253° |
| 2026-04-27 07:07 | 41.20172 | 9.59737 | 28174 ft | 440 kts | 253° |
| 2026-04-27 07:08 | 41.18425 | 9.51948 | 28178 ft | 440 kts | 253° |
| 2026-04-27 07:08 | 41.16671 | 9.44156 | 28179 ft | 440 kts | 253° |
| 2026-04-27 07:09 | 41.14912 | 9.36379 | 28179 ft | 440 kts | 253° |
| 2026-04-27 07:09 | 41.13151 | 9.28601 | 28176 ft | 440 kts | 253° |
| 2026-04-27 07:10 | 41.11383 | 9.20837 | 28179 ft | 440 kts | 253° |
| 2026-04-27 07:10 | 41.09609 | 9.13079 | 28175 ft | 439 kts | 253° |
| 2026-04-27 07:11 | 41.07835 | 9.05329 | 28174 ft | 439 kts | 253° |
| 2026-04-27 07:11 | 41.06051 | 8.97586 | 28173 ft | 439 kts | 253° |
| 2026-04-27 07:12 | 41.04285 | 8.89904 | 28173 ft | 439 kts | 253° |
| 2026-04-27 07:12 | 41.02497 | 8.82172 | 28170 ft | 439 kts | 253° |
| 2026-04-27 07:13 | 41.00703 | 8.74451 | 28170 ft | 438 kts | 253° |
| 2026-04-27 07:13 | 40.99193 | 8.67994 | 28168 ft | 438 kts | 253° |
| 2026-04-27 07:14 | 40.97389 | 8.60283 | 28172 ft | 438 kts | 253° |
| 2026-04-27 07:14 | 40.95580 | 8.52583 | 28171 ft | 438 kts | 252° |
| 2026-04-27 07:15 | 40.93783 | 8.44943 | 28171 ft | 438 kts | 252° |
| 2026-04-27 07:15 | 40.91972 | 8.37255 | 28173 ft | 438 kts | 252° |
| 2026-04-27 07:16 | 40.90153 | 8.29567 | 28173 ft | 437 kts | 252° |
| 2026-04-27 07:16 | 40.88326 | 8.21903 | 28175 ft | 437 kts | 252° |
| 2026-04-27 07:17 | 40.86517 | 8.14222 | 28174 ft | 437 kts | 256° |
| 2026-04-27 07:17 | 40.85934 | 8.06272 | 28176 ft | 437 kts | 273° |
| 2026-04-27 07:18 | 40.86331 | 7.98253 | 28178 ft | 437 kts | 273° |
| 2026-04-27 07:18 | 40.86838 | 7.90307 | 28180 ft | 437 kts | 275° |
| 2026-04-27 07:19 | 40.87438 | 7.82317 | 28179 ft | 437 kts | 275° |
| 2026-04-27 07:19 | 40.88016 | 7.74336 | 28181 ft | 436 kts | 274° |
| 2026-04-27 07:20 | 40.88549 | 7.66354 | 28183 ft | 436 kts | 274° |
| 2026-04-27 07:20 | 40.89068 | 7.58386 | 28187 ft | 435 kts | 274° |
| 2026-04-27 07:21 | 40.89590 | 7.50424 | 28186 ft | 434 kts | 274° |
| 2026-04-27 07:21 | 40.90108 | 7.42466 | 28188 ft | 434 kts | 274° |
| 2026-04-27 07:22 | 40.90616 | 7.34577 | 28188 ft | 433 kts | 274° |
| 2026-04-27 07:22 | 40.91131 | 7.26648 | 28185 ft | 432 kts | 274° |
| 2026-04-27 07:23 | 40.91638 | 7.18736 | 28187 ft | 432 kts | 274° |
| 2026-04-27 07:23 | 40.92128 | 7.10834 | 28181 ft | 431 kts | 274° |
| 2026-04-27 07:24 | 40.92615 | 7.02943 | 28180 ft | 430 kts | 274° |
| 2026-04-27 07:24 | 40.93096 | 6.95046 | 28182 ft | 430 kts | 274° |
| 2026-04-27 07:25 | 40.93570 | 6.87163 | 28181 ft | 430 kts | 274° |
| 2026-04-27 07:25 | 40.94035 | 6.79279 | 28180 ft | 430 kts | 274° |
| 2026-04-27 07:26 | 40.94499 | 6.71400 | 28183 ft | 429 kts | 274° |
| 2026-04-27 07:26 | 40.94963 | 6.63582 | 28178 ft | 429 kts | 274° |
| 2026-04-27 07:27 | 40.95415 | 6.55720 | 28175 ft | 429 kts | 274° |
| 2026-04-27 07:27 | 40.95863 | 6.47860 | 28174 ft | 429 kts | 274° |
| 2026-04-27 07:28 | 40.96308 | 6.39994 | 28173 ft | 428 kts | 274° |
| 2026-04-27 07:28 | 40.96747 | 6.32145 | 28169 ft | 428 kts | 274° |
| 2026-04-27 07:29 | 40.97177 | 6.24289 | 28166 ft | 428 kts | 274° |
| 2026-04-27 07:29 | 40.97604 | 6.16429 | 28160 ft | 428 kts | 274° |
| 2026-04-27 07:30 | 40.98024 | 6.08575 | 28163 ft | 428 kts | 274° |
| 2026-04-27 07:30 | 40.98443 | 6.00714 | 28161 ft | 428 kts | 274° |
| 2026-04-27 07:31 | 40.98855 | 5.92840 | 28150 ft | 429 kts | 275° |
| 2026-04-27 07:31 | 40.99260 | 5.84962 | 28153 ft | 429 kts | 275° |
| 2026-04-27 07:32 | 40.99655 | 5.77073 | 28153 ft | 430 kts | 275° |
| 2026-04-27 07:32 | 41.00049 | 5.69171 | 28156 ft | 430 kts | 275° |
| 2026-04-27 07:33 | 41.00441 | 5.61255 | 28156 ft | 431 kts | 275° |
| 2026-04-27 07:33 | 41.00826 | 5.53332 | 28153 ft | 432 kts | 275° |
| 2026-04-27 07:34 | 41.01207 | 5.45445 | 28150 ft | 432 kts | 275° |
| 2026-04-27 07:34 | 41.01590 | 5.37493 | 28152 ft | 433 kts | 276° |
| 2026-04-27 07:35 | 41.02000 | 5.29536 | 28152 ft | 434 kts | 276° |
| 2026-04-27 07:35 | 41.02427 | 5.21565 | 28153 ft | 434 kts | 276° |
| 2026-04-27 07:36 | 41.02844 | 5.13578 | 28154 ft | 435 kts | 276° |
| 2026-04-27 07:36 | 41.03249 | 5.05571 | 28157 ft | 436 kts | 276° |
| 2026-04-27 07:37 | 41.03647 | 4.97554 | 28157 ft | 436 kts | 276° |
| 2026-04-27 07:37 | 41.04040 | 4.89529 | 28153 ft | 437 kts | 276° |
| 2026-04-27 07:38 | 41.04424 | 4.81496 | 28154 ft | 438 kts | 276° |
| 2026-04-27 07:38 | 41.04904 | 4.73460 | 28153 ft | 437 kts | 279° |
| 2026-04-27 07:39 | 41.05740 | 4.65489 | 28153 ft | 437 kts | 282° |
| 2026-04-27 07:39 | 41.06706 | 4.57540 | 28152 ft | 437 kts | 282° |
| 2026-04-27 07:40 | 41.07617 | 4.49569 | 28149 ft | 438 kts | 281° |
| 2026-04-27 07:40 | 41.08464 | 4.41579 | 28144 ft | 438 kts | 281° |
| 2026-04-27 07:41 | 41.09305 | 4.33567 | 27698 ft | 437 kts | 281° |
| 2026-04-27 07:41 | 41.09724 | 4.29599 | 27121 ft | 433 kts | 281° |
| 2026-04-27 07:41 | 41.10142 | 4.25656 | 26542 ft | 430 kts | 281° |
| 2026-04-27 07:41 | 41.10556 | 4.21751 | 25974 ft | 427 kts | 280° |
| 2026-04-27 07:42 | 41.10965 | 4.17867 | 25410 ft | 424 kts | 280° |
| 2026-04-27 07:42 | 41.11366 | 4.14009 | 24850 ft | 421 kts | 280° |
| 2026-04-27 07:42 | 41.11761 | 4.10174 | 24289 ft | 419 kts | 280° |
| 2026-04-27 07:42 | 41.12155 | 4.06358 | 23741 ft | 416 kts | 280° |
| 2026-04-27 07:43 | 41.12546 | 4.02573 | 23126 ft | 413 kts | 279° |
| 2026-04-27 07:43 | 41.12929 | 3.98859 | 22597 ft | 409 kts | 279° |
| 2026-04-27 07:43 | 41.13312 | 3.95141 | 22063 ft | 405 kts | 279° |
| 2026-04-27 07:43 | 41.13693 | 3.91450 | 21544 ft | 403 kts | 279° |
| 2026-04-27 07:44 | 41.14069 | 3.87787 | 21041 ft | 400 kts | 279° |
| 2026-04-27 07:44 | 41.14442 | 3.84141 | 20540 ft | 398 kts | 279° |
| 2026-04-27 07:44 | 41.14808 | 3.80530 | 20319 ft | 388 kts | 279° |
| 2026-04-27 07:44 | 41.15160 | 3.77031 | 20083 ft | 379 kts | 279° |
| 2026-04-27 07:45 | 41.15505 | 3.73585 | 19809 ft | 374 kts | 279° |
| 2026-04-27 07:45 | 41.15846 | 3.70166 | 19415 ft | 372 kts | 279° |
| 2026-04-27 07:45 | 41.16183 | 3.66772 | 18964 ft | 370 kts | 279° |
| 2026-04-27 07:45 | 41.16520 | 3.63398 | 18511 ft | 368 kts | 279° |
| 2026-04-27 07:46 | 41.16858 | 3.60043 | 18014 ft | 366 kts | 278° |
| 2026-04-27 07:46 | 41.17192 | 3.56712 | 17566 ft | 363 kts | 278° |
| 2026-04-27 07:46 | 41.17522 | 3.53406 | 17122 ft | 360 kts | 278° |
| 2026-04-27 07:46 | 41.17849 | 3.50116 | 16681 ft | 358 kts | 278° |
| 2026-04-27 07:47 | 41.18172 | 3.46845 | 16240 ft | 356 kts | 278° |
| 2026-04-27 07:47 | 41.18486 | 3.43639 | 15810 ft | 354 kts | 278° |
| 2026-04-27 07:47 | 41.18801 | 3.40406 | 15375 ft | 352 kts | 278° |
| 2026-04-27 07:47 | 41.19112 | 3.37193 | 14951 ft | 350 kts | 278° |
| 2026-04-27 07:48 | 41.19420 | 3.34000 | 14518 ft | 348 kts | 278° |
| 2026-04-27 07:48 | 41.19726 | 3.30822 | 14095 ft | 346 kts | 278° |
| 2026-04-27 07:48 | 41.20031 | 3.27661 | 13639 ft | 344 kts | 278° |
| 2026-04-27 07:48 | 41.20332 | 3.24519 | 13211 ft | 341 kts | 278° |
| 2026-04-27 07:49 | 41.20631 | 3.21408 | 12793 ft | 339 kts | 278° |
| 2026-04-27 07:49 | 41.20931 | 3.18309 | 12372 ft | 337 kts | 278° |
| 2026-04-27 07:49 | 41.21225 | 3.15237 | 11958 ft | 334 kts | 278° |
| 2026-04-27 07:49 | 41.21507 | 3.12182 | 11550 ft | 332 kts | 278° |
| 2026-04-27 07:50 | 41.21777 | 3.09139 | 11143 ft | 330 kts | 278° |
| 2026-04-27 07:50 | 41.22040 | 3.06121 | 10742 ft | 328 kts | 278° |
| 2026-04-27 07:50 | 41.22297 | 3.03136 | 10497 ft | 320 kts | 278° |
| 2026-04-27 07:50 | 41.22542 | 3.00252 | 10373 ft | 308 kts | 278° |
| 2026-04-27 07:51 | 41.22781 | 2.97471 | 10238 ft | 298 kts | 278° |
| 2026-04-27 07:51 | 41.23016 | 2.94765 | 10029 ft | 291 kts | 278° |
| 2026-04-27 07:51 | 41.23248 | 2.92108 | 9964 ft | 290 kts | 278° |
| 2026-04-27 07:51 | 41.23482 | 2.89444 | 9900 ft | 290 kts | 278° |
| 2026-04-27 07:52 | 41.23717 | 2.86779 | 9832 ft | 290 kts | 278° |
| 2026-04-27 07:52 | 41.23948 | 2.84143 | 9741 ft | 290 kts | 278° |
| 2026-04-27 07:52 | 41.24177 | 2.81485 | 9643 ft | 290 kts | 278° |
| 2026-04-27 07:52 | 41.24407 | 2.78820 | 9544 ft | 289 kts | 277° |
| 2026-04-27 07:53 | 41.24638 | 2.76165 | 9443 ft | 289 kts | 277° |
| 2026-04-27 07:53 | 41.24866 | 2.73512 | 9342 ft | 289 kts | 277° |
| 2026-04-27 07:53 | 41.25093 | 2.70865 | 9244 ft | 288 kts | 277° |
| 2026-04-27 07:53 | 41.25320 | 2.68220 | 9141 ft | 288 kts | 277° |
| 2026-04-27 07:54 | 41.25473 | 2.65568 | 9038 ft | 288 kts | 269° |
| 2026-04-27 07:54 | 41.25393 | 2.62908 | 8940 ft | 288 kts | 268° |
| 2026-04-27 07:54 | 41.25309 | 2.60252 | 8835 ft | 288 kts | 268° |
| 2026-04-27 07:54 | 41.25224 | 2.57593 | 8736 ft | 288 kts | 268° |
| 2026-04-27 07:55 | 41.25139 | 2.54939 | 8633 ft | 287 kts | 268° |
| 2026-04-27 07:55 | 41.25057 | 2.52287 | 8516 ft | 287 kts | 268° |
| 2026-04-27 07:55 | 41.24974 | 2.49636 | 8423 ft | 286 kts | 268° |
| 2026-04-27 07:55 | 41.24892 | 2.47034 | 8304 ft | 277 kts | 268° |
| 2026-04-27 07:56 | 41.25042 | 2.44551 | 8159 ft | 265 kts | 288° |
| 2026-04-27 07:56 | 41.25871 | 2.42441 | 8028 ft | 254 kts | 311° |
| 2026-04-27 07:56 | 41.27214 | 2.40998 | 7880 ft | 247 kts | 334° |
| 2026-04-27 07:56 | 41.28761 | 2.40070 | 7725 ft | 248 kts | 337° |
| 2026-04-27 07:57 | 41.30396 | 2.39287 | 7478 ft | 245 kts | 355° |
| 2026-04-27 07:57 | 41.32051 | 2.39573 | 7173 ft | 241 kts | 26° |
| 2026-04-27 07:57 | 41.33337 | 2.40952 | 6821 ft | 240 kts | 57° |
| 2026-04-27 07:57 | 41.34085 | 2.42926 | 6447 ft | 240 kts | 66° |
| 2026-04-27 07:58 | 41.34763 | 2.44929 | 6092 ft | 240 kts | 66° |
| 2026-04-27 07:58 | 41.35451 | 2.46953 | 5786 ft | 239 kts | 66° |
| 2026-04-27 07:58 | 41.36138 | 2.48964 | 5477 ft | 238 kts | 66° |
| 2026-04-27 07:58 | 41.36820 | 2.50961 | 5164 ft | 237 kts | 66° |
| 2026-04-27 07:59 | 41.37499 | 2.52949 | 4871 ft | 235 kts | 66° |
| 2026-04-27 07:59 | 41.38828 | 2.56825 | 4459 ft | 221 kts | 64° |
| 2026-04-27 07:59 | 41.39719 | 2.58422 | 4264 ft | 213 kts | 39° |
| 2026-04-27 08:00 | 41.41026 | 2.59295 | 3950 ft | 212 kts | 11° |
| 2026-04-27 08:00 | 41.42493 | 2.59257 | 3575 ft | 214 kts | 344° |
| 2026-04-27 08:00 | 41.43798 | 2.58317 | 3233 ft | 215 kts | 317° |
| 2026-04-27 08:00 | 41.44664 | 2.56668 | 3138 ft | 222 kts | 290° |
| 2026-04-27 08:01 | 41.44893 | 2.55326 | 3111 ft | 228 kts | 269° |
| 2026-04-27 08:01 | 41.44619 | 2.53247 | 2980 ft | 236 kts | 257° |
| 2026-04-27 08:01 | 41.44243 | 2.51087 | 2854 ft | 240 kts | 254° |
| 2026-04-27 08:01 | 41.43693 | 2.48986 | 2737 ft | 241 kts | 246° |
| 2026-04-27 08:02 | 41.42998 | 2.46956 | 2597 ft | 241 kts | 245° |
| 2026-04-27 08:02 | 41.42308 | 2.44924 | 2471 ft | 240 kts | 246° |
| 2026-04-27 08:02 | 41.41624 | 2.42898 | 2363 ft | 239 kts | 246° |
| 2026-04-27 08:02 | 41.40944 | 2.40881 | 2309 ft | 238 kts | 246° |
| 2026-04-27 08:03 | 41.40262 | 2.38863 | 2303 ft | 239 kts | 245° |
| 2026-04-27 08:03 | 41.39578 | 2.36841 | 2315 ft | 239 kts | 246° |
| 2026-04-27 08:03 | 41.38893 | 2.34821 | 2316 ft | 239 kts | 245° |
| 2026-04-27 08:03 | 41.38223 | 2.32850 | 2323 ft | 228 kts | 246° |
| 2026-04-27 08:04 | 41.37580 | 2.30954 | 2305 ft | 223 kts | 246° |
| 2026-04-27 08:04 | 41.36941 | 2.29073 | 2308 ft | 222 kts | 246° |
| 2026-04-27 08:04 | 41.36314 | 2.27227 | 2315 ft | 222 kts | 246° |
| 2026-04-27 08:04 | 41.35672 | 2.25338 | 2307 ft | 221 kts | 245° |
| 2026-04-27 08:05 | 41.35043 | 2.23488 | 2161 ft | 223 kts | 246° |
| 2026-04-27 08:05 | 41.34411 | 2.21630 | 1887 ft | 216 kts | 246° |
| 2026-04-27 08:05 | 41.33805 | 2.19853 | 1584 ft | 204 kts | 246° |
| 2026-04-27 08:05 | 41.33245 | 2.18208 | 1324 ft | 186 kts | 246° |
| 2026-04-27 08:06 | 41.32748 | 2.16752 | 1088 ft | 163 kts | 246° |
| 2026-04-27 08:06 | 41.32296 | 2.15425 | 864 ft | 153 kts | 245° |
| 2026-04-27 08:06 | 41.31861 | 2.14152 | 664 ft | 149 kts | 245° |
| 2026-04-27 08:06 | 41.31439 | 2.12904 | 467 ft | 147 kts | 245° |
| 2026-04-27 08:07 | 41.31021 | 2.11670 | 282 ft | 146 kts | 244° |
| 2026-04-27 08:07 | 41.30598 | 2.10442 | 91 ft | 146 kts | 244° |
| 2026-04-27 08:07 | 41.30194 | 2.09270 | 3 ft | 115 kts | 246° |
| 2026-04-27 08:07 | 41.29956 | 2.08575 | 7 ft | 68 kts | 245° |
| 2026-04-27 08:08 | 41.29781 | 2.08067 | 4 ft | 50 kts | 247° |
| 2026-04-27 08:08 | 41.29754 | 2.07718 | 3 ft | 24 kts | 275° |
| 2026-04-27 08:08 | 41.29840 | 2.07594 | 3 ft | 14 kts | 334° |
| 2026-04-27 08:08 | 41.29929 | 2.07541 | 2 ft | 14 kts | 337° |
| 2026-04-27 08:09 | 41.29957 | 2.07446 | 3 ft | 12 kts | 251° |
| 2026-04-27 08:09 | 41.29945 | 2.07411 | 3 ft | 0 kts | 245° |
| 2026-04-27 08:10 | 41.29945 | 2.07410 | 3 ft | 0 kts | 245° |
| 2026-04-27 08:10 | 41.29946 | 2.07400 | 3 ft | 5 kts | 273° |
| 2026-04-27 08:10 | 41.29963 | 2.07365 | 3 ft | 3 kts | 315° |
| 2026-04-27 08:10 | 41.29983 | 2.07359 | 3 ft | 3 kts | 2° |
| 2026-04-27 08:11 | 41.30009 | 2.07368 | 3 ft | 4 kts | 27° |
| 2026-04-27 08:11 | 41.30041 | 2.07389 | 2 ft | 5 kts | 26° |
| 2026-04-27 08:11 | 41.30055 | 2.07398 | 2 ft | 1 kts | 27° |
| 2026-04-27 08:11 | 41.30064 | 2.07404 | 3 ft | 0 kts | 27° |